Decoded Metar for KBRY ( in ) (IATA:) | Meteo·Mobile Aviation Weather
aviador You're here:

KBRY Decoded Metar

in
Report Time2019-01-20 10:55:00
UTC Time2019-01-20 11:20:55
Flight Rules mvfr MVFR
WindCalm
Visibility9999 m
Phenomena:N/A
Clouds:Overcast 020 Hf
Expected CloudBase > 1,600 ft AGL from Temp-Dew spread
Ceiling2,000 ft
Temp-6°C
Dew Point-10°C (74% RH)
AAT-9.0°C
QNH1017 hPa
Raw Report
METAR KBRY 201055Z AUTO 00000KT 10SM OVC020 M06/M10 A3002 RMK AO1=

Extra information for KBRY:More info

Social comments